Terminal Aerodrome Forecast
Issued by NWS North Platte, NE

Home | Current Version | Previous Version | Text Only | Print | Product List | Glossary On
Versions: 1 2 3 4 5 6 7 8 9 10 11 12 13 14 15 16 17 18 19
936
FTUS43 KLBF 221700
TAFLBF
TAF
KLBF 221737Z 2218/2318 13014G18KT P6SM -RA OVC015
      TEMPO 2219/2222 5SM RA BR BKN007
     FM222200 12014KT P6SM OVC015
     FM230200 12011KT P6SM OVC007
     FM230400 VRB05KT 5SM BR OVC005 PROB30 2304/2310 3SM TSRA
      BKN010CB
     FM231500 13010KT P6SM OVC015=

USA.gov is the U.S. government's official web portal to all federal, state and local government web resources and services.